sensor_id;sensor_type;location;lat;lon;timestamp;P1;durP1;ratioP1;P2;durP2;ratioP2
82754;SDS011;72493;42.014;21.438;2023-10-13T00:01:01;5.45;;;3.17;;
82754;SDS011;72493;42.014;21.438;2023-10-13T00:03:30;4.70;;;3.20;;
82754;SDS011;72493;42.014;21.438;2023-10-13T00:05:59;4.43;;;2.70;;
82754;SDS011;72493;42.014;21.438;2023-10-13T00:08:28;4.18;;;2.72;;
82754;SDS011;72493;42.014;21.438;2023-10-13T00:10:55;4.95;;;3.20;;
82754;SDS011;72493;42.014;21.438;2023-10-13T00:13:28;5.47;;;3.05;;
82754;SDS011;72493;42.014;21.438;2023-10-13T00:16:00;4.57;;;3.20;;
82754;SDS011;72493;42.014;21.438;2023-10-13T00:18:31;4.80;;;2.90;;
82754;SDS011;72493;42.014;21.438;2023-10-13T00:21:02;5.03;;;2.85;;
82754;SDS011;72493;42.014;21.438;2023-10-13T00:23:37;4.85;;;3.10;;
82754;SDS011;72493;42.014;21.438;2023-10-13T00:26:04;5.03;;;3.13;;
82754;SDS011;72493;42.014;21.438;2023-10-13T00:28:34;4.55;;;3.00;;
82754;SDS011;72493;42.014;21.438;2023-10-13T00:33:35;4.72;;;3.10;;
82754;SDS011;72493;42.014;21.438;2023-10-13T00:36:03;5.03;;;3.00;;
82754;SDS011;72493;42.014;21.438;2023-10-13T00:38:30;4.38;;;2.92;;
82754;SDS011;72493;42.014;21.438;2023-10-13T00:40:57;5.15;;;2.85;;
82754;SDS011;72493;42.014;21.438;2023-10-13T00:43:29;4.88;;;3.20;;
82754;SDS011;72493;42.014;21.438;2023-10-13T00:45:57;5.20;;;2.75;;
82754;SDS011;72493;42.014;21.438;2023-10-13T00:48:35;5.25;;;3.20;;
82754;SDS011;72493;42.014;21.438;2023-10-13T00:51:07;4.57;;;2.97;;
82754;SDS011;72493;42.014;21.438;2023-10-13T00:53:43;5.10;;;3.08;;
82754;SDS011;72493;42.014;21.438;2023-10-13T00:56:10;7.47;;;3.13;;
82754;SDS011;72493;42.014;21.438;2023-10-13T00:58:44;4.95;;;3.00;;
82754;SDS011;72493;42.014;21.438;2023-10-13T01:01:17;4.63;;;3.08;;
82754;SDS011;72493;42.014;21.438;2023-10-13T01:06:10;5.50;;;2.95;;
82754;SDS011;72493;42.014;21.438;2023-10-13T01:08:37;5.85;;;3.20;;
82754;SDS011;72493;42.014;21.438;2023-10-13T01:11:04;6.13;;;3.35;;
82754;SDS011;72493;42.014;21.438;2023-10-13T01:13:33;4.78;;;2.95;;
82754;SDS011;72493;42.014;21.438;2023-10-13T01:16:02;4.85;;;3.20;;
82754;SDS011;72493;42.014;21.438;2023-10-13T01:18:29;4.38;;;3.25;;
82754;SDS011;72493;42.014;21.438;2023-10-13T01:20:56;4.47;;;3.00;;
82754;SDS011;72493;42.014;21.438;2023-10-13T01:23:26;5.35;;;3.25;;
82754;SDS011;72493;42.014;21.438;2023-10-13T01:25:54;4.38;;;2.90;;
82754;SDS011;72493;42.014;21.438;2023-10-13T01:28:22;4.85;;;3.20;;
82754;SDS011;72493;42.014;21.438;2023-10-13T01:30:49;4.20;;;2.72;;
82754;SDS011;72493;42.014;21.438;2023-10-13T01:33:16;5.07;;;3.22;;
82754;SDS011;72493;42.014;21.438;2023-10-13T01:35:42;5.13;;;2.90;;
82754;SDS011;72493;42.014;21.438;2023-10-13T01:38:15;5.13;;;3.00;;
82754;SDS011;72493;42.014;21.438;2023-10-13T01:40:41;6.47;;;3.58;;
82754;SDS011;72493;42.014;21.438;2023-10-13T01:43:08;4.85;;;3.30;;
82754;SDS011;72493;42.014;21.438;2023-10-13T01:45:38;5.40;;;3.13;;
82754;SDS011;72493;42.014;21.438;2023-10-13T01:48:14;4.72;;;3.38;;
82754;SDS011;72493;42.014;21.438;2023-10-13T01:50:41;4.38;;;2.90;;
82754;SDS011;72493;42.014;21.438;2023-10-13T01:53:12;4.88;;;3.10;;
82754;SDS011;72493;42.014;21.438;2023-10-13T01:55:39;4.57;;;3.17;;
82754;SDS011;72493;42.014;21.438;2023-10-13T01:58:13;5.03;;;2.90;;
82754;SDS011;72493;42.014;21.438;2023-10-13T02:03:43;5.35;;;2.90;;
82754;SDS011;72493;42.014;21.438;2023-10-13T02:06:13;5.00;;;3.00;;
82754;SDS011;72493;42.014;21.438;2023-10-13T02:08:49;5.43;;;3.25;;
82754;SDS011;72493;42.014;21.438;2023-10-13T02:11:22;4.80;;;2.95;;
82754;SDS011;72493;42.014;21.438;2023-10-13T02:13:48;4.72;;;2.92;;
82754;SDS011;72493;42.014;21.438;2023-10-13T02:16:18;4.82;;;3.00;;
82754;SDS011;72493;42.014;21.438;2023-10-13T02:18:47;4.45;;;2.90;;
82754;SDS011;72493;42.014;21.438;2023-10-13T02:21:17;4.10;;;2.70;;
82754;SDS011;72493;42.014;21.438;2023-10-13T02:23:43;4.25;;;2.78;;
82754;SDS011;72493;42.014;21.438;2023-10-13T02:26:25;4.25;;;2.80;;
82754;SDS011;72493;42.014;21.438;2023-10-13T02:29:04;5.07;;;3.05;;
82754;SDS011;72493;42.014;21.438;2023-10-13T02:31:34;5.30;;;2.92;;
82754;SDS011;72493;42.014;21.438;2023-10-13T02:34:01;4.85;;;2.67;;
82754;SDS011;72493;42.014;21.438;2023-10-13T02:36:33;5.07;;;3.00;;
82754;SDS011;72493;42.014;21.438;2023-10-13T02:39:05;5.45;;;2.90;;
82754;SDS011;72493;42.014;21.438;2023-10-13T02:41:34;5.97;;;3.28;;
82754;SDS011;72493;42.014;21.438;2023-10-13T02:44:04;4.57;;;2.92;;
82754;SDS011;72493;42.014;21.438;2023-10-13T02:46:31;5.47;;;2.90;;
82754;SDS011;72493;42.014;21.438;2023-10-13T02:49:00;4.43;;;2.75;;
82754;SDS011;72493;42.014;21.438;2023-10-13T02:51:34;4.90;;;2.60;;
82754;SDS011;72493;42.014;21.438;2023-10-13T02:54:07;4.20;;;2.60;;
82754;SDS011;72493;42.014;21.438;2023-10-13T02:56:38;4.60;;;2.97;;
82754;SDS011;72493;42.014;21.438;2023-10-13T02:59:26;5.28;;;2.80;;
82754;SDS011;72493;42.014;21.438;2023-10-13T03:02:05;5.03;;;2.70;;
82754;SDS011;72493;42.014;21.438;2023-10-13T03:04:48;6.90;;;3.05;;
82754;SDS011;72493;42.014;21.438;2023-10-13T03:07:15;4.00;;;2.38;;
82754;SDS011;72493;42.014;21.438;2023-10-13T03:12:17;4.45;;;2.70;;
82754;SDS011;72493;42.014;21.438;2023-10-13T03:14:43;5.05;;;2.70;;
82754;SDS011;72493;42.014;21.438;2023-10-13T03:17:21;5.00;;;2.85;;
82754;SDS011;72493;42.014;21.438;2023-10-13T03:19:58;4.60;;;2.42;;
82754;SDS011;72493;42.014;21.438;2023-10-13T03:22:25;5.25;;;2.60;;
82754;SDS011;72493;42.014;21.438;2023-10-13T03:24:58;3.70;;;2.50;;
82754;SDS011;72493;42.014;21.438;2023-10-13T03:27:31;4.43;;;2.75;;
82754;SDS011;72493;42.014;21.438;2023-10-13T03:30:33;5.07;;;3.05;;
82754;SDS011;72493;42.014;21.438;2023-10-13T03:33:08;4.03;;;2.60;;
82754;SDS011;72493;42.014;21.438;2023-10-13T03:35:39;4.70;;;2.60;;
82754;SDS011;72493;42.014;21.438;2023-10-13T03:38:09;4.18;;;2.88;;
82754;SDS011;72493;42.014;21.438;2023-10-13T03:40:46;4.85;;;2.78;;
82754;SDS011;72493;42.014;21.438;2023-10-13T03:43:22;4.88;;;2.60;;
82754;SDS011;72493;42.014;21.438;2023-10-13T03:45:49;5.18;;;2.78;;
82754;SDS011;72493;42.014;21.438;2023-10-13T03:48:26;4.22;;;2.42;;
82754;SDS011;72493;42.014;21.438;2023-10-13T03:50:56;4.97;;;2.90;;
82754;SDS011;72493;42.014;21.438;2023-10-13T03:53:28;4.57;;;2.88;;
82754;SDS011;72493;42.014;21.438;2023-10-13T03:56:01;4.50;;;2.60;;
82754;SDS011;72493;42.014;21.438;2023-10-13T03:58:37;4.97;;;3.05;;
82754;SDS011;72493;42.014;21.438;2023-10-13T04:01:04;4.20;;;2.53;;
82754;SDS011;72493;42.014;21.438;2023-10-13T04:06:05;5.10;;;2.63;;
82754;SDS011;72493;42.014;21.438;2023-10-13T04:08:32;6.25;;;3.20;;
82754;SDS011;72493;42.014;21.438;2023-10-13T04:11:08;5.38;;;3.03;;
82754;SDS011;72493;42.014;21.438;2023-10-13T04:13:53;4.65;;;2.85;;
82754;SDS011;72493;42.014;21.438;2023-10-13T04:16:38;5.18;;;2.78;;
82754;SDS011;72493;42.014;21.438;2023-10-13T04:21:51;5.57;;;2.90;;
82754;SDS011;72493;42.014;21.438;2023-10-13T04:24:23;4.75;;;2.70;;
82754;SDS011;72493;42.014;21.438;2023-10-13T04:27:04;4.93;;;2.65;;
82754;SDS011;72493;42.014;21.438;2023-10-13T04:29:37;4.68;;;2.45;;
82754;SDS011;72493;42.014;21.438;2023-10-13T04:32:21;5.63;;;2.80;;
82754;SDS011;72493;42.014;21.438;2023-10-13T04:34:57;5.00;;;2.90;;
82754;SDS011;72493;42.014;21.438;2023-10-13T04:37:44;5.88;;;2.90;;
82754;SDS011;72493;42.014;21.438;2023-10-13T04:40:16;4.45;;;2.97;;
82754;SDS011;72493;42.014;21.438;2023-10-13T04:42:44;6.35;;;3.03;;
82754;SDS011;72493;42.014;21.438;2023-10-13T04:45:24;4.57;;;2.97;;
82754;SDS011;72493;42.014;21.438;2023-10-13T04:48:00;5.35;;;2.85;;
82754;SDS011;72493;42.014;21.438;2023-10-13T04:50:59;5.20;;;2.97;;
82754;SDS011;72493;42.014;21.438;2023-10-13T04:53:46;4.50;;;2.67;;
82754;SDS011;72493;42.014;21.438;2023-10-13T04:56:30;4.32;;;2.55;;
82754;SDS011;72493;42.014;21.438;2023-10-13T04:59:05;5.22;;;3.03;;
82754;SDS011;72493;42.014;21.438;2023-10-13T05:01:55;6.13;;;2.72;;
82754;SDS011;72493;42.014;21.438;2023-10-13T05:04:40;4.82;;;3.00;;
82754;SDS011;72493;42.014;21.438;2023-10-13T05:07:25;4.47;;;2.55;;
82754;SDS011;72493;42.014;21.438;2023-10-13T05:10:10;5.15;;;2.70;;
82754;SDS011;72493;42.014;21.438;2023-10-13T05:12:54;4.82;;;2.88;;
82754;SDS011;72493;42.014;21.438;2023-10-13T05:15:43;4.57;;;2.83;;
82754;SDS011;72493;42.014;21.438;2023-10-13T05:18:28;4.65;;;2.88;;
82754;SDS011;72493;42.014;21.438;2023-10-13T05:21:13;5.28;;;2.88;;
82754;SDS011;72493;42.014;21.438;2023-10-13T05:23:57;5.50;;;2.67;;
82754;SDS011;72493;42.014;21.438;2023-10-13T05:26:42;5.88;;;2.92;;
82754;SDS011;72493;42.014;21.438;2023-10-13T05:32:30;6.25;;;2.90;;
82754;SDS011;72493;42.014;21.438;2023-10-13T05:35:23;5.90;;;2.72;;
82754;SDS011;72493;42.014;21.438;2023-10-13T05:38:11;4.47;;;2.70;;
82754;SDS011;72493;42.014;21.438;2023-10-13T05:40:57;4.32;;;2.58;;
82754;SDS011;72493;42.014;21.438;2023-10-13T05:43:42;4.20;;;2.38;;
82754;SDS011;72493;42.014;21.438;2023-10-13T05:46:27;4.93;;;2.80;;
82754;SDS011;72493;42.014;21.438;2023-10-13T05:49:06;5.40;;;2.40;;
82754;SDS011;72493;42.014;21.438;2023-10-13T05:51:42;4.63;;;2.50;;
82754;SDS011;72493;42.014;21.438;2023-10-13T05:54:09;5.38;;;2.60;;
82754;SDS011;72493;42.014;21.438;2023-10-13T05:56:41;4.45;;;2.80;;
82754;SDS011;72493;42.014;21.438;2023-10-13T05:59:27;4.25;;;2.63;;
82754;SDS011;72493;42.014;21.438;2023-10-13T06:04:57;5.15;;;2.63;;
82754;SDS011;72493;42.014;21.438;2023-10-13T06:07:41;3.70;;;2.40;;
82754;SDS011;72493;42.014;21.438;2023-10-13T06:10:26;4.55;;;2.78;;
82754;SDS011;72493;42.014;21.438;2023-10-13T06:13:11;4.53;;;2.83;;
82754;SDS011;72493;42.014;21.438;2023-10-13T06:15:55;4.45;;;2.83;;
82754;SDS011;72493;42.014;21.438;2023-10-13T06:18:40;4.97;;;2.90;;
82754;SDS011;72493;42.014;21.438;2023-10-13T06:27:34;4.72;;;2.97;;
82754;SDS011;72493;42.014;21.438;2023-10-13T06:30:19;5.15;;;3.03;;
82754;SDS011;72493;42.014;21.438;2023-10-13T06:32:45;4.28;;;2.85;;
82754;SDS011;72493;42.014;21.438;2023-10-13T06:35:15;5.30;;;3.17;;
82754;SDS011;72493;42.014;21.438;2023-10-13T06:37:48;5.50;;;3.15;;
82754;SDS011;72493;42.014;21.438;2023-10-13T06:40:14;5.53;;;3.20;;
82754;SDS011;72493;42.014;21.438;2023-10-13T06:42:58;5.57;;;3.25;;
82754;SDS011;72493;42.014;21.438;2023-10-13T06:45:38;5.13;;;3.10;;
82754;SDS011;72493;42.014;21.438;2023-10-13T06:48:04;5.28;;;3.58;;
82754;SDS011;72493;42.014;21.438;2023-10-13T06:50:31;5.65;;;3.40;;
82754;SDS011;72493;42.014;21.438;2023-10-13T06:53:04;7.15;;;3.15;;
82754;SDS011;72493;42.014;21.438;2023-10-13T06:55:32;4.90;;;3.03;;
82754;SDS011;72493;42.014;21.438;2023-10-13T06:58:01;4.88;;;2.85;;
82754;SDS011;72493;42.014;21.438;2023-10-13T07:00:29;5.50;;;3.30;;
82754;SDS011;72493;42.014;21.438;2023-10-13T07:03:02;6.38;;;3.90;;
82754;SDS011;72493;42.014;21.438;2023-10-13T07:05:41;4.63;;;2.97;;
82754;SDS011;72493;42.014;21.438;2023-10-13T07:08:07;4.25;;;2.63;;
82754;SDS011;72493;42.014;21.438;2023-10-13T07:10:34;5.32;;;2.88;;
82754;SDS011;72493;42.014;21.438;2023-10-13T07:13:20;4.65;;;2.90;;
82754;SDS011;72493;42.014;21.438;2023-10-13T07:15:47;5.50;;;2.90;;
82754;SDS011;72493;42.014;21.438;2023-10-13T07:20:41;4.85;;;3.10;;
82754;SDS011;72493;42.014;21.438;2023-10-13T07:23:10;4.97;;;2.80;;
82754;SDS011;72493;42.014;21.438;2023-10-13T07:25:50;4.63;;;3.10;;
82754;SDS011;72493;42.014;21.438;2023-10-13T07:28:18;4.28;;;2.78;;
82754;SDS011;72493;42.014;21.438;2023-10-13T07:33:21;4.70;;;2.85;;
82754;SDS011;72493;42.014;21.438;2023-10-13T07:35:48;4.95;;;3.10;;
82754;SDS011;72493;42.014;21.438;2023-10-13T07:38:25;6.13;;;3.28;;
82754;SDS011;72493;42.014;21.438;2023-10-13T07:40:56;4.18;;;2.53;;
82754;SDS011;72493;42.014;21.438;2023-10-13T07:43:32;4.03;;;2.40;;
82754;SDS011;72493;42.014;21.438;2023-10-13T07:48:24;6.40;;;2.78;;
82754;SDS011;72493;42.014;21.438;2023-10-13T07:51:04;4.70;;;2.90;;
82754;SDS011;72493;42.014;21.438;2023-10-13T07:53:32;5.18;;;3.25;;
82754;SDS011;72493;42.014;21.438;2023-10-13T07:56:04;6.28;;;2.90;;
82754;SDS011;72493;42.014;21.438;2023-10-13T07:58:31;7.25;;;3.28;;
82754;SDS011;72493;42.014;21.438;2023-10-13T08:00:57;6.07;;;3.10;;
82754;SDS011;72493;42.014;21.438;2023-10-13T08:06:09;4.88;;;2.97;;
82754;SDS011;72493;42.014;21.438;2023-10-13T08:08:35;6.03;;;2.95;;
82754;SDS011;72493;42.014;21.438;2023-10-13T08:11:06;4.43;;;2.90;;
82754;SDS011;72493;42.014;21.438;2023-10-13T08:13:54;5.22;;;2.75;;
82754;SDS011;72493;42.014;21.438;2023-10-13T08:16:47;4.65;;;3.03;;
82754;SDS011;72493;42.014;21.438;2023-10-13T08:19:23;4.47;;;2.55;;
82754;SDS011;72493;42.014;21.438;2023-10-13T08:21:57;5.13;;;2.90;;
82754;SDS011;72493;42.014;21.438;2023-10-13T08:24:24;5.35;;;2.90;;
82754;SDS011;72493;42.014;21.438;2023-10-13T08:27:04;4.40;;;3.10;;
82754;SDS011;72493;42.014;21.438;2023-10-13T08:29:49;4.70;;;2.88;;
82754;SDS011;72493;42.014;21.438;2023-10-13T08:34:57;4.63;;;2.70;;
82754;SDS011;72493;42.014;21.438;2023-10-13T08:37:26;5.80;;;2.83;;
82754;SDS011;72493;42.014;21.438;2023-10-13T08:39:53;6.57;;;2.85;;
82754;SDS011;72493;42.014;21.438;2023-10-13T08:42:35;4.43;;;2.78;;
82754;SDS011;72493;42.014;21.438;2023-10-13T08:45:09;4.72;;;2.70;;
82754;SDS011;72493;42.014;21.438;2023-10-13T08:53:19;5.75;;;3.50;;
82754;SDS011;72493;42.014;21.438;2023-10-13T08:55:59;4.60;;;3.00;;
82754;SDS011;72493;42.014;21.438;2023-10-13T09:01:28;4.78;;;2.83;;
82754;SDS011;72493;42.014;21.438;2023-10-13T09:04:14;9.73;;;4.20;;
82754;SDS011;72493;42.014;21.438;2023-10-13T09:06:44;5.63;;;3.40;;
82754;SDS011;72493;42.014;21.438;2023-10-13T09:12:16;4.72;;;3.35;;
82754;SDS011;72493;42.014;21.438;2023-10-13T09:14:51;5.55;;;3.03;;
82754;SDS011;72493;42.014;21.438;2023-10-13T09:17:24;4.72;;;2.95;;
82754;SDS011;72493;42.014;21.438;2023-10-13T09:20:04;4.65;;;2.95;;
82754;SDS011;72493;42.014;21.438;2023-10-13T09:22:53;4.88;;;3.53;;
82754;SDS011;72493;42.014;21.438;2023-10-13T09:25:29;4.15;;;2.70;;
82754;SDS011;72493;42.014;21.438;2023-10-13T09:28:00;5.03;;;3.20;;
82754;SDS011;72493;42.014;21.438;2023-10-13T09:30:28;4.95;;;3.03;;
82754;SDS011;72493;42.014;21.438;2023-10-13T09:33:00;5.63;;;2.92;;
82754;SDS011;72493;42.014;21.438;2023-10-13T09:35:35;5.60;;;2.75;;
82754;SDS011;72493;42.014;21.438;2023-10-13T09:38:02;4.93;;;2.72;;
82754;SDS011;72493;42.014;21.438;2023-10-13T09:40:29;5.07;;;2.40;;
82754;SDS011;72493;42.014;21.438;2023-10-13T09:43:03;5.35;;;2.97;;
82754;SDS011;72493;42.014;21.438;2023-10-13T09:45:34;5.10;;;2.58;;
82754;SDS011;72493;42.014;21.438;2023-10-13T09:51:04;4.72;;;2.58;;
82754;SDS011;72493;42.014;21.438;2023-10-13T09:56:46;4.53;;;2.30;;
82754;SDS011;72493;42.014;21.438;2023-10-13T09:59:30;4.43;;;2.42;;
82754;SDS011;72493;42.014;21.438;2023-10-13T10:02:00;4.15;;;2.75;;
82754;SDS011;72493;42.014;21.438;2023-10-13T10:04:34;3.95;;;2.72;;
82754;SDS011;72493;42.014;21.438;2023-10-13T10:07:10;4.47;;;2.45;;
82754;SDS011;72493;42.014;21.438;2023-10-13T10:09:36;6.03;;;2.67;;
82754;SDS011;72493;42.014;21.438;2023-10-13T10:17:41;4.60;;;2.35;;
82754;SDS011;72493;42.014;21.438;2023-10-13T10:20:08;5.32;;;2.35;;
82754;SDS011;72493;42.014;21.438;2023-10-13T10:22:40;5.43;;;2.40;;
82754;SDS011;72493;42.014;21.438;2023-10-13T10:25:13;5.40;;;2.35;;
82754;SDS011;72493;42.014;21.438;2023-10-13T10:27:58;4.05;;;2.10;;
82754;SDS011;72493;42.014;21.438;2023-10-13T10:30:28;3.80;;;2.03;;
82754;SDS011;72493;42.014;21.438;2023-10-13T10:32:55;6.03;;;2.13;;
82754;SDS011;72493;42.014;21.438;2023-10-13T10:35:25;5.28;;;1.92;;
82754;SDS011;72493;42.014;21.438;2023-10-13T10:38:16;5.05;;;2.00;;
82754;SDS011;72493;42.014;21.438;2023-10-13T10:41:01;4.85;;;1.90;;
82754;SDS011;72493;42.014;21.438;2023-10-13T10:43:38;4.32;;;2.00;;
82754;SDS011;72493;42.014;21.438;2023-10-13T10:46:13;4.25;;;2.10;;
82754;SDS011;72493;42.014;21.438;2023-10-13T10:48:39;5.57;;;2.20;;
82754;SDS011;72493;42.014;21.438;2023-10-13T10:51:09;3.95;;;2.00;;
82754;SDS011;72493;42.014;21.438;2023-10-13T10:53:51;4.28;;;2.30;;
82754;SDS011;72493;42.014;21.438;2023-10-13T10:56:18;4.20;;;2.00;;
82754;SDS011;72493;42.014;21.438;2023-10-13T10:58:50;4.40;;;2.30;;
82754;SDS011;72493;42.014;21.438;2023-10-13T11:01:23;5.13;;;2.38;;
82754;SDS011;72493;42.014;21.438;2023-10-13T11:06:51;5.07;;;2.10;;
82754;SDS011;72493;42.014;21.438;2023-10-13T11:14:39;3.80;;;2.20;;
82754;SDS011;72493;42.014;21.438;2023-10-13T11:17:05;4.20;;;2.00;;
82754;SDS011;72493;42.014;21.438;2023-10-13T11:19:46;5.00;;;1.80;;
82754;SDS011;72493;42.014;21.438;2023-10-13T11:22:14;3.40;;;1.70;;
82754;SDS011;72493;42.014;21.438;2023-10-13T11:25:00;4.93;;;1.90;;
82754;SDS011;72493;42.014;21.438;2023-10-13T11:54:44;3.50;;;1.80;;
82754;SDS011;72493;42.014;21.438;2023-10-13T11:57:12;4.05;;;1.85;;
82754;SDS011;72493;42.014;21.438;2023-10-13T11:59:42;3.53;;;1.63;;
82754;SDS011;72493;42.014;21.438;2023-10-13T12:02:19;3.55;;;1.70;;
82754;SDS011;72493;42.014;21.438;2023-10-13T12:04:51;3.63;;;1.50;;
82754;SDS011;72493;42.014;21.438;2023-10-13T12:07:19;6.38;;;3.13;;
82754;SDS011;72493;42.014;21.438;2023-10-13T12:09:54;5.43;;;1.70;;
82754;SDS011;72493;42.014;21.438;2023-10-13T12:12:26;4.78;;;1.60;;
82754;SDS011;72493;42.014;21.438;2023-10-13T12:14:53;4.00;;;1.30;;
82754;SDS011;72493;42.014;21.438;2023-10-13T12:17:24;3.92;;;1.50;;
82754;SDS011;72493;42.014;21.438;2023-10-13T12:19:54;4.65;;;1.90;;
82754;SDS011;72493;42.014;21.438;2023-10-13T12:22:22;5.35;;;2.10;;
82754;SDS011;72493;42.014;21.438;2023-10-13T12:25:00;4.07;;;1.80;;
82754;SDS011;72493;42.014;21.438;2023-10-13T12:27:29;3.35;;;1.30;;
82754;SDS011;72493;42.014;21.438;2023-10-13T12:30:11;3.67;;;1.40;;
82754;SDS011;72493;42.014;21.438;2023-10-13T12:35:42;3.10;;;1.30;;
82754;SDS011;72493;42.014;21.438;2023-10-13T12:38:44;3.53;;;1.52;;
82754;SDS011;72493;42.014;21.438;2023-10-13T12:41:22;3.90;;;1.50;;
82754;SDS011;72493;42.014;21.438;2023-10-13T12:50:17;4.55;;;1.48;;
82754;SDS011;72493;42.014;21.438;2023-10-13T12:53:03;4.25;;;1.90;;
82754;SDS011;72493;42.014;21.438;2023-10-13T12:55:30;4.35;;;1.70;;
82754;SDS011;72493;42.014;21.438;2023-10-13T12:57:56;3.30;;;1.30;;
82754;SDS011;72493;42.014;21.438;2023-10-13T13:00:23;3.45;;;1.30;;
82754;SDS011;72493;42.014;21.438;2023-10-13T13:02:58;3.28;;;1.40;;
82754;SDS011;72493;42.014;21.438;2023-10-13T13:05:24;3.40;;;1.50;;
82754;SDS011;72493;42.014;21.438;2023-10-13T13:07:53;3.63;;;1.38;;
82754;SDS011;72493;42.014;21.438;2023-10-13T13:10:20;3.38;;;1.40;;
82754;SDS011;72493;42.014;21.438;2023-10-13T13:13:00;3.13;;;1.30;;
82754;SDS011;72493;42.014;21.438;2023-10-13T13:15:26;3.70;;;1.30;;
82754;SDS011;72493;42.014;21.438;2023-10-13T13:17:52;2.92;;;1.20;;
82754;SDS011;72493;42.014;21.438;2023-10-13T13:20:18;4.72;;;1.40;;
82754;SDS011;72493;42.014;21.438;2023-10-13T13:25:59;3.60;;;1.60;;
82754;SDS011;72493;42.014;21.438;2023-10-13T13:28:37;4.32;;;1.15;;
82754;SDS011;72493;42.014;21.438;2023-10-13T13:31:04;3.35;;;1.10;;
82754;SDS011;72493;42.014;21.438;2023-10-13T13:33:33;4.78;;;2.50;;
82754;SDS011;72493;42.014;21.438;2023-10-13T13:36:04;4.05;;;1.67;;
82754;SDS011;72493;42.014;21.438;2023-10-13T13:38:30;4.85;;;1.88;;
82754;SDS011;72493;42.014;21.438;2023-10-13T13:40:57;3.97;;;1.88;;
82754;SDS011;72493;42.014;21.438;2023-10-13T13:43:24;5.43;;;2.08;;
82754;SDS011;72493;42.014;21.438;2023-10-13T13:46:00;3.55;;;1.63;;
82754;SDS011;72493;42.014;21.438;2023-10-13T14:48:53;5.43;;;2.15;;
82754;SDS011;72493;42.014;21.438;2023-10-13T15:31:15;6.53;;;3.20;;
82754;SDS011;72493;42.014;21.438;2023-10-13T15:33:51;10.65;;;3.20;;
82754;SDS011;72493;42.014;21.438;2023-10-13T15:36:21;6.18;;;2.45;;
82754;SDS011;72493;42.014;21.438;2023-10-13T15:38:48;5.32;;;2.20;;
82754;SDS011;72493;42.014;21.438;2023-10-13T15:41:23;6.18;;;2.30;;
82754;SDS011;72493;42.014;21.438;2023-10-13T15:43:50;7.38;;;2.72;;
82754;SDS011;72493;42.014;21.438;2023-10-13T15:46:20;5.40;;;2.67;;
82754;SDS011;72493;42.014;21.438;2023-10-13T15:48:50;6.22;;;2.83;;
82754;SDS011;72493;42.014;21.438;2023-10-13T15:51:17;7.88;;;2.97;;
82754;SDS011;72493;42.014;21.438;2023-10-13T15:53:43;8.52;;;3.03;;
82754;SDS011;72493;42.014;21.438;2023-10-13T15:56:13;6.53;;;2.78;;
82754;SDS011;72493;42.014;21.438;2023-10-13T15:58:45;10.88;;;3.83;;
82754;SDS011;72493;42.014;21.438;2023-10-13T16:01:12;6.80;;;3.13;;
82754;SDS011;72493;42.014;21.438;2023-10-13T16:03:42;7.22;;;3.60;;
82754;SDS011;72493;42.014;21.438;2023-10-13T16:06:15;8.13;;;3.80;;
82754;SDS011;72493;42.014;21.438;2023-10-13T16:08:42;8.75;;;3.63;;
82754;SDS011;72493;42.014;21.438;2023-10-13T16:11:09;10.50;;;4.00;;
82754;SDS011;72493;42.014;21.438;2023-10-13T16:13:44;11.18;;;3.63;;
82754;SDS011;72493;42.014;21.438;2023-10-13T16:16:23;10.70;;;3.65;;
82754;SDS011;72493;42.014;21.438;2023-10-13T16:18:50;9.02;;;3.95;;
82754;SDS011;72493;42.014;21.438;2023-10-13T16:21:16;9.20;;;3.85;;
82754;SDS011;72493;42.014;21.438;2023-10-13T16:23:43;9.25;;;3.88;;
82754;SDS011;72493;42.014;21.438;2023-10-13T16:26:18;11.30;;;4.50;;
82754;SDS011;72493;42.014;21.438;2023-10-13T16:28:49;8.50;;;3.33;;
82754;SDS011;72493;42.014;21.438;2023-10-13T16:31:19;7.45;;;3.08;;
82754;SDS011;72493;42.014;21.438;2023-10-13T16:33:48;5.47;;;2.70;;
82754;SDS011;72493;42.014;21.438;2023-10-13T16:36:14;7.07;;;3.53;;
82754;SDS011;72493;42.014;21.438;2023-10-13T16:38:41;6.88;;;3.22;;
82754;SDS011;72493;42.014;21.438;2023-10-13T16:41:10;6.70;;;3.00;;
82754;SDS011;72493;42.014;21.438;2023-10-13T16:43:40;6.70;;;2.92;;
82754;SDS011;72493;42.014;21.438;2023-10-13T16:46:10;8.07;;;3.40;;
82754;SDS011;72493;42.014;21.438;2023-10-13T16:48:37;7.65;;;3.05;;
82754;SDS011;72493;42.014;21.438;2023-10-13T16:51:03;7.47;;;3.05;;
82754;SDS011;72493;42.014;21.438;2023-10-13T16:53:33;7.10;;;3.25;;
82754;SDS011;72493;42.014;21.438;2023-10-13T16:55:59;7.60;;;3.35;;
82754;SDS011;72493;42.014;21.438;2023-10-13T16:58:28;5.88;;;2.58;;
82754;SDS011;72493;42.014;21.438;2023-10-13T17:00:55;9.13;;;3.00;;
82754;SDS011;72493;42.014;21.438;2023-10-13T17:03:22;5.45;;;3.03;;
82754;SDS011;72493;42.014;21.438;2023-10-13T17:08:20;7.80;;;2.95;;
82754;SDS011;72493;42.014;21.438;2023-10-13T17:10:46;5.95;;;2.70;;
82754;SDS011;72493;42.014;21.438;2023-10-13T17:13:15;7.13;;;2.78;;
82754;SDS011;72493;42.014;21.438;2023-10-13T17:15:41;7.72;;;2.92;;
82754;SDS011;72493;42.014;21.438;2023-10-13T17:18:08;5.40;;;2.80;;
82754;SDS011;72493;42.014;21.438;2023-10-13T17:20:34;5.72;;;2.80;;
82754;SDS011;72493;42.014;21.438;2023-10-13T17:23:02;6.60;;;3.05;;
82754;SDS011;72493;42.014;21.438;2023-10-13T17:25:28;6.85;;;3.00;;
82754;SDS011;72493;42.014;21.438;2023-10-13T17:27:57;6.95;;;2.60;;
82754;SDS011;72493;42.014;21.438;2023-10-13T17:30:24;8.70;;;3.08;;
82754;SDS011;72493;42.014;21.438;2023-10-13T17:32:50;6.10;;;2.63;;
82754;SDS011;72493;42.014;21.438;2023-10-13T17:35:16;10.80;;;3.08;;
82754;SDS011;72493;42.014;21.438;2023-10-13T17:37:42;6.13;;;3.20;;
82754;SDS011;72493;42.014;21.438;2023-10-13T17:40:09;5.97;;;2.90;;
82754;SDS011;72493;42.014;21.438;2023-10-13T17:42:42;7.28;;;3.05;;
82754;SDS011;72493;42.014;21.438;2023-10-13T17:45:12;6.30;;;3.08;;
82754;SDS011;72493;42.014;21.438;2023-10-13T17:47:39;7.22;;;2.78;;
82754;SDS011;72493;42.014;21.438;2023-10-13T17:50:06;5.63;;;3.13;;
82754;SDS011;72493;42.014;21.438;2023-10-13T17:55:06;7.32;;;3.00;;
82754;SDS011;72493;42.014;21.438;2023-10-13T17:57:33;7.63;;;3.05;;
82754;SDS011;72493;42.014;21.438;2023-10-13T18:00:03;8.23;;;3.35;;
82754;SDS011;72493;42.014;21.438;2023-10-13T18:02:35;6.55;;;2.97;;
82754;SDS011;72493;42.014;21.438;2023-10-13T18:05:02;6.95;;;3.33;;
82754;SDS011;72493;42.014;21.438;2023-10-13T18:07:28;8.05;;;3.15;;
82754;SDS011;72493;42.014;21.438;2023-10-13T18:09:54;5.95;;;3.20;;
82754;SDS011;72493;42.014;21.438;2023-10-13T18:12:21;7.85;;;3.50;;
82754;SDS011;72493;42.014;21.438;2023-10-13T18:14:47;7.10;;;4.15;;
82754;SDS011;72493;42.014;21.438;2023-10-13T18:17:15;6.80;;;4.22;;
82754;SDS011;72493;42.014;21.438;2023-10-13T18:19:42;6.65;;;4.07;;
82754;SDS011;72493;42.014;21.438;2023-10-13T18:22:08;7.95;;;4.35;;
82754;SDS011;72493;42.014;21.438;2023-10-13T18:24:43;7.80;;;4.55;;
82754;SDS011;72493;42.014;21.438;2023-10-13T18:27:11;6.05;;;4.15;;
82754;SDS011;72493;42.014;21.438;2023-10-13T18:29:37;6.43;;;4.25;;
82754;SDS011;72493;42.014;21.438;2023-10-13T18:32:03;8.35;;;4.40;;
82754;SDS011;72493;42.014;21.438;2023-10-13T18:34:30;6.50;;;3.70;;
82754;SDS011;72493;42.014;21.438;2023-10-13T18:36:57;6.28;;;4.13;;
82754;SDS011;72493;42.014;21.438;2023-10-13T18:39:27;7.15;;;3.63;;
82754;SDS011;72493;42.014;21.438;2023-10-13T18:42:02;7.35;;;3.83;;